Portada
METAR-TAF:

METAR-TAF

Aeroports :

Porto Alegre, Rio Grande do Sul, Brasil

latitud: 30-01S, longitud: 051-13W, altitud: 47 m

Observació

L'informe es va fer fa 1 hora i 21 minuts, a les 14:00 UTC
Vent 6 kt del Oest, variant entre Oest/Sud-Oest i Nord/Nord-Oest
Temperatura 16°C
Humitat 68%
Pressió 1025 hPa
Visibilitat 10 km o més
sense núvols per sota de 1500 mi sense presència de cumulonimbus.

METAR: SBCO 201400Z 28006KT 250V330 CAVOK 16/10 Q1025

Hora: 12:21 (15:21 UTC)

Pronòstic

L'informe es va fer fa 6 hores i 6 minuts, a les 09:15 UTC
Pronòstic vàlid del 20 a les 12 UTC al 20 a les 24 UTC
Vent 5 kt del Oest
Visibilitat 10 km o més
sense núvols per sota de 1500 mi sense presència de cumulonimbus.
Evolucionant progressivament
l' 20 a les 20 UTC al 20 a les 22 UTC
Vent 5 kt del Est/Sud-Est

TAF: SBCO 200915Z 2012/2024 27005KT CAVOK TX18/2018Z TN11/2023Z BECMG 2020/2022 12005KT RMK PDW

Observacions i pronòstics meteorològics de més de 4000 aeroports (METAR i TAF).

Les estacions disponibles són els punts grocs i vermells al mapa.

Posi el ratolí al punt desitjat per veure el nom de l'estació.

Feu clic per veure les observacions i els pronòstics meteorològics.

Per canviar el mapa: feu clic els botons verds amb una creu de color negre per apropar; al botó verd amb un guió per allunyar la imatge; o en les fletxes verdes per a mapes adjacents.


METAR-TAF: